createdAt,value
2023-02-17T00:01:30.030Z,6.78
2023-02-17T00:03:58.256Z,6.65
2023-02-17T00:06:29.545Z,5.93
2023-02-17T00:08:58.182Z,7.05
2023-02-17T00:11:26.901Z,6.20
2023-02-17T00:13:56.310Z,7.68
2023-02-17T00:16:25.955Z,6.40
2023-02-17T00:18:56.690Z,6.43
2023-02-17T00:21:27.284Z,6.75
2023-02-17T00:23:55.256Z,8.20
2023-02-17T00:26:23.069Z,7.18
2023-02-17T00:28:51.260Z,6.63
2023-02-17T00:31:23.273Z,4.80
2023-02-17T00:33:54.568Z,6.75
2023-02-17T00:36:22.108Z,7.43
2023-02-17T00:38:49.881Z,7.40
2023-02-17T00:41:18.972Z,8.40
2023-02-17T00:46:16.066Z,7.07
2023-02-17T00:48:44.077Z,6.78
2023-02-17T00:51:12.383Z,7.18
2023-02-17T00:53:39.965Z,8.80
2023-02-17T00:56:08.850Z,9.32
2023-02-17T00:58:36.656Z,6.72
2023-02-17T01:01:04.874Z,5.60
2023-02-17T01:03:32.621Z,6.97
2023-02-17T01:06:06.784Z,7.35
2023-02-17T01:08:34.472Z,7.68
2023-02-17T01:11:02.023Z,8.05
2023-02-17T01:13:29.752Z,7.90
2023-02-17T01:15:58.866Z,7.68
2023-02-17T01:18:27.151Z,8.15
2023-02-17T01:20:54.829Z,7.53
2023-02-17T01:23:22.655Z,7.72
2023-02-17T01:25:50.799Z,8.00
2023-02-17T01:28:21.019Z,9.57
2023-02-17T01:30:49.569Z,8.65
2023-02-17T01:33:17.430Z,9.48
2023-02-17T01:35:44.844Z,9.15
2023-02-17T01:38:12.885Z,9.70
2023-02-17T01:40:49.481Z,10.30
2023-02-17T01:43:18.194Z,10.98
2023-02-17T01:46:05.200Z,11.20
2023-02-17T01:48:38.740Z,13.30
2023-02-17T01:51:13.649Z,11.70
2023-02-17T01:53:45.007Z,11.85
2023-02-17T01:56:15.345Z,12.63
2023-02-17T01:58:49.593Z,11.75
2023-02-17T02:01:17.852Z,12.80
2023-02-17T02:03:45.580Z,9.70
2023-02-17T02:06:19.730Z,11.70
2023-02-17T02:08:58.555Z,12.90
2023-02-17T02:11:26.105Z,11.80
2023-02-17T02:13:54.074Z,14.27
2023-02-17T02:16:57.594Z,13.00
2023-02-17T02:19:59.095Z,12.98
2023-02-17T02:23:05.934Z,13.20
2023-02-17T02:26:10.714Z,14.50
2023-02-17T02:28:50.662Z,13.55
2023-02-17T02:31:27.535Z,16.10
2023-02-17T02:34:03.380Z,12.32
2023-02-17T02:36:39.980Z,16.58
2023-02-17T02:39:13.927Z,14.98
2023-02-17T02:41:46.826Z,12.65
2023-02-17T02:44:18.018Z,15.85
2023-02-17T02:46:45.997Z,17.52
2023-02-17T02:49:13.675Z,12.47
2023-02-17T02:51:49.618Z,15.60
2023-02-17T02:54:42.550Z,16.13
2023-02-17T02:57:12.764Z,17.75
2023-02-17T03:00:04.602Z,17.10
2023-02-17T03:02:31.989Z,18.63
2023-02-17T03:05:28.339Z,22.08
2023-02-17T03:08:09.840Z,17.92
2023-02-17T03:10:46.020Z,15.20
2023-02-17T03:13:13.546Z,15.13
2023-02-17T03:15:41.489Z,18.67
2023-02-17T03:18:09.198Z,16.95
2023-02-17T03:20:41.653Z,16.08
2023-02-17T03:23:09.291Z,17.42
2023-02-17T03:25:37.011Z,20.38
2023-02-17T03:28:04.690Z,17.52
2023-02-17T03:30:32.518Z,17.33
2023-02-17T03:33:00.820Z,18.50
2023-02-17T03:35:28.550Z,18.15
2023-02-17T03:37:56.354Z,19.17
2023-02-17T03:40:24.085Z,19.30
2023-02-17T03:42:51.553Z,17.38
2023-02-17T03:45:19.020Z,16.80
2023-02-17T03:47:46.534Z,18.90
2023-02-17T03:50:14.137Z,15.68
2023-02-17T03:52:42.147Z,19.58
2023-02-17T03:55:09.614Z,17.83
2023-02-17T03:57:37.492Z,19.38
2023-02-17T04:00:07.383Z,17.60
2023-02-17T04:02:35.810Z,19.90
2023-02-17T04:05:04.101Z,16.05
2023-02-17T04:07:31.919Z,13.75
2023-02-17T04:09:59.643Z,17.83
2023-02-17T04:12:27.521Z,18.42
2023-02-17T04:14:55.193Z,16.13
2023-02-17T04:17:22.921Z,16.30
2023-02-17T04:19:50.721Z,17.98
2023-02-17T04:22:18.559Z,16.90
2023-02-17T04:24:46.247Z,18.50
2023-02-17T04:27:13.919Z,16.77
2023-02-17T04:29:41.576Z,17.35
2023-02-17T04:32:11.475Z,16.73
2023-02-17T04:34:38.978Z,18.63
2023-02-17T04:37:06.831Z,15.55
2023-02-17T04:39:34.582Z,12.83
2023-02-17T04:42:02.144Z,15.80
2023-02-17T04:44:29.539Z,18.77
2023-02-17T04:46:57.225Z,18.33
2023-02-17T04:49:25.041Z,20.63
2023-02-17T04:51:54.210Z,16.75
2023-02-17T04:54:22.911Z,19.70
2023-02-17T04:56:50.522Z,17.45
2023-02-17T04:59:17.967Z,17.05
2023-02-17T05:01:45.588Z,17.95
2023-02-17T05:04:13.049Z,16.42
2023-02-17T05:06:40.495Z,19.55
2023-02-17T05:09:08.346Z,19.02
2023-02-17T05:11:36.001Z,22.33
2023-02-17T05:14:03.507Z,19.73
2023-02-17T05:16:30.958Z,19.90
2023-02-17T05:18:58.519Z,22.40
2023-02-17T05:21:26.262Z,18.25
2023-02-17T05:23:53.766Z,28.38
2023-02-17T05:26:21.248Z,19.73
2023-02-17T05:28:48.767Z,22.00
2023-02-17T05:31:16.640Z,19.52
2023-02-17T05:33:44.577Z,20.80
2023-02-17T05:36:13.501Z,17.73
2023-02-17T05:41:09.146Z,19.75
2023-02-17T05:43:36.608Z,20.48
2023-02-17T05:46:05.356Z,18.00
2023-02-17T05:48:33.857Z,22.58
2023-02-17T05:51:01.734Z,19.15
2023-02-17T05:53:29.387Z,19.17
2023-02-17T05:55:56.978Z,18.55
2023-02-17T05:58:24.812Z,20.10
2023-02-17T06:00:52.797Z,18.38
2023-02-17T06:03:20.536Z,21.77
2023-02-17T06:05:48.364Z,24.73
2023-02-17T06:08:16.251Z,21.05
2023-02-17T06:10:43.979Z,21.90
2023-02-17T06:13:11.790Z,21.23
2023-02-17T06:15:39.437Z,20.42
2023-02-17T06:18:06.914Z,22.02
2023-02-17T06:20:34.389Z,21.75
2023-02-17T06:23:02.176Z,20.23
2023-02-17T06:25:33.915Z,19.80
2023-02-17T06:28:01.457Z,18.42
2023-02-17T06:30:29.633Z,18.75
2023-02-17T06:32:58.364Z,18.77
2023-02-17T06:35:26.340Z,16.17
2023-02-17T06:37:54.151Z,14.77
2023-02-17T06:40:22.181Z,19.65
2023-02-17T06:42:50.009Z,20.00
2023-02-17T06:45:17.694Z,24.23
2023-02-17T06:47:45.514Z,20.90
2023-02-17T06:50:13.547Z,21.30
2023-02-17T06:52:42.755Z,25.27
2023-02-17T06:55:10.491Z,23.05
2023-02-17T06:57:38.205Z,22.98
2023-02-17T07:00:06.973Z,24.52
2023-02-17T07:02:38.974Z,23.70
2023-02-17T07:05:07.976Z,21.35
2023-02-17T07:07:35.858Z,24.65
2023-02-17T07:10:04.515Z,24.50
2023-02-17T07:12:32.005Z,25.08
2023-02-17T07:14:59.636Z,24.13
2023-02-17T07:17:27.285Z,23.52
2023-02-17T07:19:54.848Z,24.10
2023-02-17T07:22:25.494Z,22.67
2023-02-17T07:24:53.850Z,25.13
2023-02-17T07:27:21.295Z,25.73
2023-02-17T07:29:49.287Z,23.92
2023-02-17T07:32:17.347Z,25.95
2023-02-17T07:34:44.894Z,27.08
2023-02-17T07:37:12.794Z,25.90
2023-02-17T07:39:40.589Z,30.90
2023-02-17T07:42:10.009Z,26.70
2023-02-17T07:44:37.818Z,26.63
2023-02-17T07:47:05.317Z,26.88
2023-02-17T07:49:32.901Z,27.10
2023-02-17T07:52:00.750Z,25.35
2023-02-17T07:54:28.231Z,25.02
2023-02-17T07:56:55.724Z,26.10
2023-02-17T07:59:23.462Z,27.15
2023-02-17T08:01:51.203Z,25.60
2023-02-17T08:04:18.942Z,26.73
2023-02-17T08:06:46.782Z,25.60
2023-02-17T08:09:32.913Z,26.50
2023-02-17T08:12:19.345Z,25.88
2023-02-17T08:14:46.777Z,25.80
2023-02-17T08:17:14.992Z,24.17
2023-02-17T08:19:48.617Z,26.95
2023-02-17T08:22:18.753Z,24.17
2023-02-17T08:24:46.595Z,27.70
2023-02-17T08:27:15.606Z,24.17
2023-02-17T08:29:43.982Z,27.85
2023-02-17T08:32:13.305Z,22.95
2023-02-17T08:34:41.236Z,25.75
2023-02-17T08:37:09.895Z,26.58
2023-02-17T08:39:37.577Z,29.00
2023-02-17T08:42:05.846Z,27.98
2023-02-17T08:44:36.028Z,23.65
2023-02-17T08:47:05.681Z,29.88
2023-02-17T08:49:33.610Z,27.13
2023-02-17T08:52:01.205Z,31.73
2023-02-17T08:54:29.265Z,29.42
2023-02-17T08:56:58.628Z,32.00
2023-02-17T08:59:30.894Z,33.58
2023-02-17T09:01:58.806Z,30.40
2023-02-17T09:04:26.468Z,31.42
2023-02-17T09:06:58.360Z,34.58
2023-02-17T09:09:27.021Z,31.23
2023-02-17T09:11:57.986Z,33.30
2023-02-17T09:14:26.316Z,38.95
2023-02-17T09:16:56.919Z,40.55
2023-02-17T09:19:25.137Z,35.47
2023-02-17T09:21:53.168Z,40.20
2023-02-17T09:24:20.737Z,42.20
2023-02-17T09:26:48.577Z,43.67
2023-02-17T09:29:16.570Z,39.90
2023-02-17T09:31:46.147Z,42.80
2023-02-17T09:34:14.551Z,38.33
2023-02-17T09:36:42.295Z,41.08
2023-02-17T09:39:13.432Z,42.30
2023-02-17T09:41:52.436Z,37.53
2023-02-17T09:44:31.347Z,48.20
2023-02-17T09:49:42.165Z,52.38
2023-02-17T09:52:24.252Z,52.13
2023-02-17T09:55:09.942Z,45.70
2023-02-17T09:57:52.194Z,39.53
2023-02-17T10:00:29.650Z,31.58
2023-02-17T10:03:13.422Z,30.80
2023-02-17T10:06:10.718Z,33.67
2023-02-17T10:08:50.306Z,33.40
2023-02-17T10:11:32.673Z,29.38
2023-02-17T10:14:09.906Z,32.05
2023-02-17T10:16:45.891Z,35.42
2023-02-17T10:19:28.320Z,31.73
2023-02-17T10:22:08.815Z,34.80
2023-02-17T10:24:36.679Z,28.83
2023-02-17T10:27:42.834Z,30.65
2023-02-17T10:30:26.528Z,32.15
2023-02-17T10:33:27.968Z,34.75
2023-02-17T10:36:10.018Z,27.23
2023-02-17T10:38:49.374Z,33.97
2023-02-17T10:41:22.850Z,33.97
2023-02-17T10:43:51.716Z,30.63
2023-02-17T10:46:26.225Z,27.58
2023-02-17T10:48:55.725Z,26.95
2023-02-17T10:51:27.383Z,27.52
2023-02-17T10:54:03.320Z,23.17
2023-02-17T10:56:44.355Z,26.42
2023-02-17T10:59:21.919Z,29.48
2023-02-17T11:01:50.638Z,25.27
2023-02-17T11:04:18.497Z,27.58
2023-02-17T11:06:51.658Z,28.63
2023-02-17T11:09:32.098Z,26.60
2023-02-17T11:12:03.316Z,31.15
2023-02-17T11:14:35.177Z,28.02
2023-02-17T11:17:13.015Z,31.65
2023-02-17T11:19:40.877Z,30.27
2023-02-17T11:22:44.576Z,22.93
2023-02-17T11:25:27.947Z,30.10
2023-02-17T11:27:56.916Z,33.28
2023-02-17T11:32:52.334Z,30.75
2023-02-17T11:35:48.840Z,35.92
2023-02-17T11:38:25.779Z,38.13
2023-02-17T11:41:07.730Z,58.25
2023-02-17T11:43:36.663Z,46.53
2023-02-17T11:46:46.733Z,39.30
2023-02-17T11:49:33.015Z,37.13
2023-02-17T11:52:42.151Z,37.75
2023-02-17T11:55:44.677Z,37.90
2023-02-17T11:58:32.186Z,33.15
2023-02-17T12:01:37.310Z,30.33
2023-02-17T12:04:10.638Z,29.83
2023-02-17T12:06:51.259Z,28.95
2023-02-17T12:09:29.763Z,27.70
2023-02-17T12:12:14.099Z,30.38
2023-02-17T12:14:50.822Z,30.00
2023-02-17T12:17:18.519Z,27.75
2023-02-17T12:20:14.714Z,30.17
2023-02-17T12:23:06.820Z,27.67
2023-02-17T12:25:41.667Z,25.35
2023-02-17T12:28:46.197Z,25.95
2023-02-17T12:31:27.821Z,25.73
2023-02-17T12:34:01.060Z,24.10
2023-02-17T12:36:36.623Z,24.85
2023-02-17T12:39:15.669Z,27.92
2023-02-17T12:44:37.704Z,25.08
2023-02-17T12:47:15.074Z,25.80
2023-02-17T12:49:50.624Z,23.50
2023-02-17T12:52:18.273Z,25.85
2023-02-17T12:54:54.601Z,27.83
2023-02-17T12:57:46.718Z,30.15
2023-02-17T13:00:23.999Z,27.15
2023-02-17T13:02:52.719Z,24.98
2023-02-17T13:05:25.691Z,30.52
2023-02-17T13:08:06.395Z,31.02
2023-02-17T13:10:36.927Z,29.98
2023-02-17T13:13:11.489Z,31.15
2023-02-17T13:15:42.309Z,26.00
2023-02-17T13:18:28.436Z,28.52
2023-02-17T13:21:17.909Z,27.10
2023-02-17T13:23:58.165Z,33.92
2023-02-17T13:26:37.895Z,34.15
2023-02-17T13:29:24.043Z,29.63
2023-02-17T13:31:58.612Z,37.50
2023-02-17T13:34:33.196Z,38.08
2023-02-17T13:37:15.772Z,35.55
2023-02-17T13:39:43.565Z,37.95
2023-02-17T13:42:34.038Z,35.85
2023-02-17T13:45:11.112Z,35.35
2023-02-17T13:47:41.757Z,37.65
2023-02-17T13:50:36.431Z,36.28
2023-02-17T13:53:26.840Z,36.83
2023-02-17T13:55:58.228Z,42.10
2023-02-17T13:58:36.897Z,35.90
2023-02-17T14:01:06.826Z,31.08
2023-02-17T14:03:42.700Z,36.35
2023-02-17T14:06:32.513Z,36.15
2023-02-17T14:09:00.036Z,37.03
2023-02-17T14:11:30.395Z,38.72
2023-02-17T14:14:00.570Z,35.92
2023-02-17T14:16:32.490Z,36.47
2023-02-17T14:19:11.076Z,35.75
2023-02-17T14:21:42.407Z,29.58
2023-02-17T14:24:37.429Z,38.45
2023-02-17T14:27:08.813Z,36.33
2023-02-17T14:29:47.179Z,34.78
2023-02-17T14:32:28.108Z,39.05
2023-02-17T14:35:24.151Z,37.00
2023-02-17T14:37:52.395Z,42.75
2023-02-17T14:40:23.943Z,39.03
2023-02-17T14:42:52.215Z,40.50
2023-02-17T14:45:20.005Z,39.80
2023-02-17T14:47:47.690Z,41.88
2023-02-17T14:50:17.500Z,41.35
2023-02-17T14:52:48.100Z,42.58
2023-02-17T14:55:36.611Z,40.78
2023-02-17T14:58:04.876Z,43.92
2023-02-17T15:00:32.339Z,31.73
2023-02-17T15:03:00.170Z,39.75
2023-02-17T15:05:28.207Z,38.83
2023-02-17T15:07:56.150Z,34.30
2023-02-17T15:10:29.007Z,32.92
2023-02-17T15:12:57.232Z,32.88
2023-02-17T15:15:24.794Z,33.42
2023-02-17T15:17:52.413Z,29.40
2023-02-17T15:20:19.973Z,26.85
2023-02-17T15:22:52.622Z,28.13
2023-02-17T15:25:24.235Z,25.63
2023-02-17T15:27:52.272Z,25.20
2023-02-17T15:30:21.222Z,22.17
2023-02-17T15:32:49.100Z,22.17
2023-02-17T15:35:23.566Z,20.80
2023-02-17T15:37:52.846Z,24.10
2023-02-17T15:40:26.294Z,22.48
2023-02-17T15:42:57.128Z,20.25
2023-02-17T15:45:25.158Z,21.45
2023-02-17T15:48:02.890Z,16.03
2023-02-17T15:50:31.325Z,22.67
2023-02-17T15:52:59.327Z,21.20
2023-02-17T15:55:28.397Z,22.63
2023-02-17T15:57:59.137Z,21.95
2023-02-17T16:00:29.756Z,21.70
2023-02-17T16:02:57.427Z,21.38
2023-02-17T16:05:27.745Z,20.25
2023-02-17T16:07:55.869Z,20.38
2023-02-17T16:10:29.463Z,15.88
2023-02-17T16:12:59.746Z,20.17
2023-02-17T16:15:30.529Z,20.25
2023-02-17T16:17:58.958Z,19.13
2023-02-17T16:20:34.701Z,13.43
2023-02-17T16:23:03.221Z,15.88
2023-02-17T16:25:30.953Z,15.88
2023-02-17T16:27:58.835Z,16.42
2023-02-17T16:30:31.622Z,13.57
2023-02-17T16:33:00.010Z,18.25
2023-02-17T16:35:30.903Z,15.73
2023-02-17T16:38:05.950Z,16.98
2023-02-17T16:40:36.970Z,19.10
2023-02-17T16:43:04.829Z,20.70
2023-02-17T16:45:34.058Z,20.13
2023-02-17T16:48:02.264Z,19.90
2023-02-17T16:50:33.600Z,17.00
2023-02-17T16:53:04.193Z,18.70
2023-02-17T16:55:34.347Z,18.38
2023-02-17T16:58:02.507Z,19.50
2023-02-17T17:00:35.755Z,18.92
2023-02-17T17:03:03.892Z,19.65
2023-02-17T17:05:31.806Z,17.38
2023-02-17T17:07:59.484Z,18.30
2023-02-17T17:10:31.518Z,17.25
2023-02-17T17:13:00.406Z,16.45
2023-02-17T17:18:01.378Z,17.08
2023-02-17T17:20:35.527Z,19.25
2023-02-17T17:23:10.062Z,18.70
2023-02-17T17:25:40.774Z,17.27
2023-02-17T17:28:12.345Z,16.25
2023-02-17T17:30:39.970Z,16.52
2023-02-17T17:33:07.448Z,14.52
2023-02-17T17:35:35.334Z,15.55
2023-02-17T17:38:03.519Z,18.75
2023-02-17T17:40:48.474Z,10.90
2023-02-17T17:43:20.497Z,14.10
2023-02-17T17:45:51.231Z,15.50
2023-02-17T17:48:20.584Z,12.77
2023-02-17T17:50:49.817Z,13.97
2023-02-17T17:53:18.040Z,13.02
2023-02-17T17:55:48.198Z,11.52
2023-02-17T17:58:17.239Z,11.15
2023-02-17T18:00:45.553Z,11.85
2023-02-17T18:03:13.570Z,12.67
2023-02-17T18:05:41.739Z,11.50
2023-02-17T18:08:09.542Z,13.90
2023-02-17T18:10:40.194Z,11.40
2023-02-17T18:13:10.479Z,11.68
2023-02-17T18:15:39.749Z,11.20
2023-02-17T18:18:07.581Z,10.73
2023-02-17T18:20:35.409Z,11.77
2023-02-17T18:23:03.303Z,10.75
2023-02-17T18:25:31.166Z,11.65
2023-02-17T18:27:59.269Z,10.40
2023-02-17T18:30:27.489Z,7.33
2023-02-17T18:32:55.860Z,12.20
2023-02-17T18:35:23.858Z,10.65
2023-02-17T18:37:52.878Z,9.73
2023-02-17T18:40:21.743Z,9.20
2023-02-17T18:42:49.330Z,9.40
2023-02-17T18:45:17.821Z,9.15
2023-02-17T18:47:46.392Z,8.10
2023-02-17T18:50:16.422Z,9.50
2023-02-17T18:52:45.076Z,34.13
2023-02-17T18:55:13.642Z,11.65
2023-02-17T18:57:42.226Z,9.95
2023-02-17T19:00:13.042Z,7.95
2023-02-17T19:02:41.384Z,7.35
2023-02-17T19:05:10.818Z,9.27
2023-02-17T19:07:39.555Z,6.40
2023-02-17T19:10:08.350Z,7.70
2023-02-17T19:12:37.914Z,11.90
2023-02-17T19:15:07.394Z,6.38
2023-02-17T19:17:35.242Z,8.35
2023-02-17T19:20:04.748Z,13.60
2023-02-17T19:22:36.964Z,6.82
2023-02-17T19:25:05.401Z,11.45
2023-02-17T19:27:33.147Z,5.80
2023-02-17T19:30:01.589Z,8.98
2023-02-17T19:32:30.379Z,6.85
2023-02-17T19:34:58.054Z,6.50
2023-02-17T19:37:25.816Z,7.72
2023-02-17T19:39:54.308Z,5.23
2023-02-17T19:42:22.228Z,5.75
2023-02-17T19:44:50.144Z,8.15
2023-02-17T19:47:17.916Z,6.32
2023-02-17T19:49:45.829Z,10.88
2023-02-17T19:52:13.534Z,7.80
2023-02-17T19:54:41.276Z,8.02
2023-02-17T19:57:10.450Z,6.45
2023-02-17T19:59:38.355Z,5.65
2023-02-17T20:02:06.573Z,8.93
2023-02-17T20:04:34.701Z,11.20
2023-02-17T20:07:02.610Z,5.90
2023-02-17T20:09:30.135Z,6.55
2023-02-17T20:11:57.996Z,6.65
2023-02-17T20:14:25.958Z,8.00
2023-02-17T20:16:55.678Z,7.45
2023-02-17T20:19:24.149Z,9.00
2023-02-17T20:21:52.946Z,8.85
2023-02-17T20:24:20.896Z,8.45
2023-02-17T20:26:51.011Z,8.63
2023-02-17T20:29:19.431Z,7.45
2023-02-17T20:31:47.771Z,6.97
2023-02-17T20:34:39.330Z,9.63
2023-02-17T20:37:09.214Z,10.93
2023-02-17T20:39:39.116Z,7.40
2023-02-17T20:42:07.304Z,8.70
2023-02-17T20:44:35.824Z,8.52
2023-02-17T20:47:03.742Z,7.63
2023-02-17T20:49:31.568Z,8.15
2023-02-17T20:51:59.741Z,5.47
2023-02-17T20:54:27.808Z,5.18
2023-02-17T20:56:57.958Z,8.07
2023-02-17T20:59:25.862Z,7.57
2023-02-17T21:01:53.704Z,8.13
2023-02-17T21:04:21.575Z,8.40
2023-02-17T21:06:50.474Z,9.18
2023-02-17T21:09:19.087Z,10.40
2023-02-17T21:11:47.828Z,6.68
2023-02-17T21:14:17.533Z,9.20
2023-02-17T21:19:15.336Z,11.35
2023-02-17T21:21:43.093Z,9.02
2023-02-17T21:24:11.375Z,12.80
2023-02-17T21:26:39.574Z,11.60
2023-02-17T21:29:08.230Z,7.60
2023-02-17T21:31:37.079Z,10.97
2023-02-17T21:34:05.194Z,10.25
2023-02-17T21:36:33.405Z,9.93
2023-02-17T21:39:01.106Z,9.95
2023-02-17T21:41:30.378Z,9.00
2023-02-17T21:44:17.577Z,11.98
2023-02-17T21:46:46.489Z,22.02
2023-02-17T21:49:14.338Z,9.95
2023-02-17T21:51:42.097Z,10.93
2023-02-17T21:54:10.550Z,9.63
2023-02-17T21:56:38.982Z,8.43
2023-02-17T21:59:07.710Z,8.02
2023-02-17T22:01:35.637Z,6.97
2023-02-17T22:04:04.187Z,8.93
2023-02-17T22:06:35.569Z,9.20
2023-02-17T22:09:05.888Z,9.25
2023-02-17T22:11:35.945Z,9.15
2023-02-17T22:14:07.351Z,8.10
2023-02-17T22:16:36.181Z,8.20
2023-02-17T22:19:05.828Z,10.57
2023-02-17T22:21:33.851Z,8.48
2023-02-17T22:24:01.902Z,8.82
2023-02-17T22:26:30.314Z,7.27
2023-02-17T22:28:57.989Z,10.93
2023-02-17T22:31:27.980Z,7.43
2023-02-17T22:34:01.850Z,7.47
2023-02-17T22:36:32.296Z,11.40
2023-02-17T22:39:00.621Z,9.48
2023-02-17T22:41:28.940Z,8.48
2023-02-17T22:43:56.732Z,8.10
2023-02-17T22:46:27.110Z,9.25
2023-02-17T22:48:57.129Z,9.52
2023-02-17T22:51:30.735Z,8.38
2023-02-17T22:54:00.717Z,7.57
2023-02-17T22:56:29.172Z,7.82
2023-02-17T22:59:00.701Z,7.70
2023-02-17T23:01:30.198Z,7.90
2023-02-17T23:03:57.852Z,7.70
2023-02-17T23:06:31.301Z,9.38
2023-02-17T23:09:00.265Z,7.13
2023-02-17T23:11:52.447Z,6.63
2023-02-17T23:14:22.552Z,8.25
2023-02-17T23:16:51.153Z,8.40
2023-02-17T23:19:21.075Z,6.18
2023-02-17T23:21:52.380Z,7.07
2023-02-17T23:24:20.916Z,6.65
2023-02-17T23:26:48.621Z,7.78
2023-02-17T23:29:16.920Z,6.72
2023-02-17T23:31:44.847Z,4.95
2023-02-17T23:34:15.653Z,6.35
2023-02-17T23:36:44.855Z,6.40
2023-02-17T23:41:40.622Z,6.55
2023-02-17T23:44:10.247Z,6.55
2023-02-17T23:46:38.443Z,6.55
2023-02-17T23:49:06.536Z,5.47
2023-02-17T23:51:34.826Z,4.03
2023-02-17T23:54:02.646Z,7.15
2023-02-17T23:56:34.742Z,5.72
2023-02-17T23:59:02.864Z,7.10
